sensor_id;sensor_type;location;lat;lon;timestamp;P1;durP1;ratioP1;P2;durP2;ratioP2
74223;SDS011;62585;49.706;18.216;2023-09-12T00:01:16;10.65;;;8.13;;
74223;SDS011;62585;49.706;18.216;2023-09-12T00:03:42;13.40;;;8.88;;
74223;SDS011;62585;49.706;18.216;2023-09-12T00:06:08;12.48;;;8.10;;
74223;SDS011;62585;49.706;18.216;2023-09-12T00:08:34;10.38;;;8.30;;
74223;SDS011;62585;49.706;18.216;2023-09-12T00:11:01;13.40;;;8.63;;
74223;SDS011;62585;49.706;18.216;2023-09-12T00:13:32;14.85;;;9.40;;
74223;SDS011;62585;49.706;18.216;2023-09-12T00:15:58;13.13;;;8.88;;
74223;SDS011;62585;49.706;18.216;2023-09-12T00:18:24;12.63;;;8.70;;
74223;SDS011;62585;49.706;18.216;2023-09-12T00:20:51;13.15;;;8.68;;
74223;SDS011;62585;49.706;18.216;2023-09-12T00:23:18;14.95;;;8.50;;
74223;SDS011;62585;49.706;18.216;2023-09-12T00:25:45;12.00;;;7.95;;
74223;SDS011;62585;49.706;18.216;2023-09-12T00:28:11;12.00;;;7.95;;
74223;SDS011;62585;49.706;18.216;2023-09-12T00:30:37;11.27;;;8.20;;
74223;SDS011;62585;49.706;18.216;2023-09-12T00:33:03;11.95;;;8.40;;
74223;SDS011;62585;49.706;18.216;2023-09-12T00:35:29;13.45;;;8.40;;
74223;SDS011;62585;49.706;18.216;2023-09-12T00:37:55;10.05;;;7.68;;
74223;SDS011;62585;49.706;18.216;2023-09-12T00:40:21;11.27;;;7.78;;
74223;SDS011;62585;49.706;18.216;2023-09-12T00:42:47;13.07;;;8.23;;
74223;SDS011;62585;49.706;18.216;2023-09-12T00:45:13;11.73;;;8.13;;
74223;SDS011;62585;49.706;18.216;2023-09-12T00:47:39;13.27;;;8.32;;
74223;SDS011;62585;49.706;18.216;2023-09-12T00:50:05;13.07;;;8.00;;
74223;SDS011;62585;49.706;18.216;2023-09-12T00:52:33;10.85;;;7.72;;
74223;SDS011;62585;49.706;18.216;2023-09-12T00:55:00;15.93;;;8.65;;
74223;SDS011;62585;49.706;18.216;2023-09-12T00:57:26;12.60;;;8.25;;
74223;SDS011;62585;49.706;18.216;2023-09-12T00:59:52;10.40;;;7.82;;
74223;SDS011;62585;49.706;18.216;2023-09-12T01:02:19;12.60;;;7.72;;
74223;SDS011;62585;49.706;18.216;2023-09-12T01:04:46;12.38;;;7.97;;
74223;SDS011;62585;49.706;18.216;2023-09-12T01:07:12;10.82;;;7.72;;
74223;SDS011;62585;49.706;18.216;2023-09-12T01:09:39;10.82;;;8.38;;
74223;SDS011;62585;49.706;18.216;2023-09-12T01:12:06;12.00;;;7.63;;
74223;SDS011;62585;49.706;18.216;2023-09-12T01:14:32;13.60;;;7.70;;
74223;SDS011;62585;49.706;18.216;2023-09-12T01:16:58;10.73;;;7.63;;
74223;SDS011;62585;49.706;18.216;2023-09-12T01:19:26;10.98;;;8.15;;
74223;SDS011;62585;49.706;18.216;2023-09-12T01:24:35;11.50;;;6.95;;
74223;SDS011;62585;49.706;18.216;2023-09-12T01:27:27;13.52;;;8.55;;
74223;SDS011;62585;49.706;18.216;2023-09-12T01:30:03;11.75;;;7.63;;
74223;SDS011;62585;49.706;18.216;2023-09-12T01:32:32;13.65;;;7.93;;
74223;SDS011;62585;49.706;18.216;2023-09-12T01:34:59;11.25;;;7.50;;
74223;SDS011;62585;49.706;18.216;2023-09-12T01:37:25;13.50;;;7.90;;
74223;SDS011;62585;49.706;18.216;2023-09-12T01:39:51;10.25;;;7.70;;
74223;SDS011;62585;49.706;18.216;2023-09-12T01:42:18;11.18;;;7.68;;
74223;SDS011;62585;49.706;18.216;2023-09-12T01:44:46;10.95;;;7.60;;
74223;SDS011;62585;49.706;18.216;2023-09-12T01:47:15;11.60;;;7.97;;
74223;SDS011;62585;49.706;18.216;2023-09-12T01:49:43;12.98;;;7.57;;
74223;SDS011;62585;49.706;18.216;2023-09-12T01:52:12;11.10;;;7.15;;
74223;SDS011;62585;49.706;18.216;2023-09-12T01:57:06;11.13;;;7.88;;
74223;SDS011;62585;49.706;18.216;2023-09-12T01:59:33;9.98;;;7.05;;
74223;SDS011;62585;49.706;18.216;2023-09-12T02:01:59;10.38;;;7.40;;
74223;SDS011;62585;49.706;18.216;2023-09-12T02:04:25;11.73;;;7.75;;
74223;SDS011;62585;49.706;18.216;2023-09-12T02:06:51;13.40;;;8.15;;
74223;SDS011;62585;49.706;18.216;2023-09-12T02:09:17;12.63;;;9.13;;
74223;SDS011;62585;49.706;18.216;2023-09-12T05:08:43;10.43;;;7.32;;
74223;SDS011;62585;49.706;18.216;2023-09-12T05:11:10;9.63;;;7.22;;
74223;SDS011;62585;49.706;18.216;2023-09-12T05:13:35;11.80;;;8.60;;
74223;SDS011;62585;49.706;18.216;2023-09-12T05:16:01;11.90;;;7.88;;
74223;SDS011;62585;49.706;18.216;2023-09-12T05:18:27;9.80;;;7.00;;
74223;SDS011;62585;49.706;18.216;2023-09-12T05:20:53;13.35;;;7.68;;
74223;SDS011;62585;49.706;18.216;2023-09-12T05:23:19;11.77;;;7.78;;
74223;SDS011;62585;49.706;18.216;2023-09-12T05:25:45;12.13;;;9.10;;
74223;SDS011;62585;49.706;18.216;2023-09-12T05:28:11;11.90;;;7.82;;
74223;SDS011;62585;49.706;18.216;2023-09-12T05:30:44;10.75;;;7.82;;
74223;SDS011;62585;49.706;18.216;2023-09-12T05:33:09;12.98;;;9.15;;
74223;SDS011;62585;49.706;18.216;2023-09-12T05:35:35;11.90;;;8.88;;
74223;SDS011;62585;49.706;18.216;2023-09-12T05:38:02;16.08;;;8.85;;
74223;SDS011;62585;49.706;18.216;2023-09-12T05:40:28;13.65;;;8.98;;
74223;SDS011;62585;49.706;18.216;2023-09-12T05:42:54;13.40;;;8.65;;
74223;SDS011;62585;49.706;18.216;2023-09-12T05:45:20;16.02;;;9.57;;
74223;SDS011;62585;49.706;18.216;2023-09-12T05:47:46;16.27;;;9.48;;
74223;SDS011;62585;49.706;18.216;2023-09-12T05:50:13;11.88;;;8.77;;
74223;SDS011;62585;49.706;18.216;2023-09-12T05:52:39;13.15;;;9.38;;
74223;SDS011;62585;49.706;18.216;2023-09-12T05:55:07;12.55;;;8.63;;
74223;SDS011;62585;49.706;18.216;2023-09-12T05:57:33;13.32;;;9.18;;
74223;SDS011;62585;49.706;18.216;2023-09-12T05:59:59;15.77;;;10.20;;
74223;SDS011;62585;49.706;18.216;2023-09-12T06:02:30;14.10;;;9.32;;
74223;SDS011;62585;49.706;18.216;2023-09-12T06:04:58;16.25;;;9.93;;
74223;SDS011;62585;49.706;18.216;2023-09-12T06:07:24;13.50;;;9.20;;
74223;SDS011;62585;49.706;18.216;2023-09-12T06:09:50;15.63;;;9.10;;
74223;SDS011;62585;49.706;18.216;2023-09-12T06:12:16;14.07;;;9.52;;
74223;SDS011;62585;49.706;18.216;2023-09-12T06:14:42;14.10;;;8.95;;
74223;SDS011;62585;49.706;18.216;2023-09-12T06:17:07;13.95;;;9.27;;
74223;SDS011;62585;49.706;18.216;2023-09-12T06:19:33;13.65;;;9.68;;
74223;SDS011;62585;49.706;18.216;2023-09-12T06:21:59;11.52;;;8.45;;
74223;SDS011;62585;49.706;18.216;2023-09-12T06:24:25;13.25;;;8.93;;
74223;SDS011;62585;49.706;18.216;2023-09-12T06:26:51;15.20;;;9.05;;
74223;SDS011;62585;49.706;18.216;2023-09-12T06:29:17;13.07;;;9.18;;
74223;SDS011;62585;49.706;18.216;2023-09-12T06:31:42;12.68;;;8.73;;
74223;SDS011;62585;49.706;18.216;2023-09-12T06:34:08;13.20;;;9.35;;
74223;SDS011;62585;49.706;18.216;2023-09-12T06:36:34;13.23;;;9.02;;
74223;SDS011;62585;49.706;18.216;2023-09-12T06:39:01;12.88;;;8.73;;
74223;SDS011;62585;49.706;18.216;2023-09-12T06:41:28;11.48;;;8.45;;
74223;SDS011;62585;49.706;18.216;2023-09-12T06:43:54;12.32;;;9.00;;
74223;SDS011;62585;49.706;18.216;2023-09-12T06:46:22;13.48;;;9.10;;
74223;SDS011;62585;49.706;18.216;2023-09-12T06:48:48;12.90;;;9.02;;
74223;SDS011;62585;49.706;18.216;2023-09-12T06:51:15;14.85;;;8.55;;
74223;SDS011;62585;49.706;18.216;2023-09-12T06:53:42;11.60;;;9.00;;
74223;SDS011;62585;49.706;18.216;2023-09-12T06:56:08;12.75;;;8.60;;
74223;SDS011;62585;49.706;18.216;2023-09-12T06:58:34;12.80;;;8.70;;
74223;SDS011;62585;49.706;18.216;2023-09-12T07:01:04;13.35;;;8.45;;
74223;SDS011;62585;49.706;18.216;2023-09-12T07:03:34;15.60;;;9.18;;
74223;SDS011;62585;49.706;18.216;2023-09-12T07:06:01;12.80;;;9.13;;
74223;SDS011;62585;49.706;18.216;2023-09-12T07:08:31;12.85;;;9.52;;
74223;SDS011;62585;49.706;18.216;2023-09-12T07:10:58;11.85;;;8.30;;
74223;SDS011;62585;49.706;18.216;2023-09-12T07:13:31;11.90;;;8.38;;
74223;SDS011;62585;49.706;18.216;2023-09-12T07:15:57;15.02;;;9.05;;
74223;SDS011;62585;49.706;18.216;2023-09-12T07:18:23;11.65;;;8.75;;
74223;SDS011;62585;49.706;18.216;2023-09-12T07:21:02;11.20;;;8.40;;
74223;SDS011;62585;49.706;18.216;2023-09-12T07:23:29;12.82;;;8.63;;
74223;SDS011;62585;49.706;18.216;2023-09-12T07:25:57;11.98;;;8.63;;
74223;SDS011;62585;49.706;18.216;2023-09-12T07:28:23;11.70;;;8.30;;
74223;SDS011;62585;49.706;18.216;2023-09-12T07:30:49;13.48;;;9.10;;
74223;SDS011;62585;49.706;18.216;2023-09-12T07:33:16;11.23;;;8.05;;
74223;SDS011;62585;49.706;18.216;2023-09-12T07:35:42;12.13;;;8.38;;
74223;SDS011;62585;49.706;18.216;2023-09-12T07:38:08;13.05;;;8.90;;
74223;SDS011;62585;49.706;18.216;2023-09-12T07:40:33;11.82;;;8.20;;
74223;SDS011;62585;49.706;18.216;2023-09-12T07:42:59;12.40;;;7.72;;
74223;SDS011;62585;49.706;18.216;2023-09-12T07:45:25;13.32;;;8.43;;
74223;SDS011;62585;49.706;18.216;2023-09-12T07:47:51;12.38;;;8.32;;
74223;SDS011;62585;49.706;18.216;2023-09-12T07:50:16;10.93;;;7.93;;
74223;SDS011;62585;49.706;18.216;2023-09-12T07:52:42;10.25;;;7.45;;
74223;SDS011;62585;49.706;18.216;2023-09-12T07:55:08;10.88;;;7.00;;
74223;SDS011;62585;49.706;18.216;2023-09-12T07:57:34;10.18;;;7.32;;
74223;SDS011;62585;49.706;18.216;2023-09-12T08:02:30;13.68;;;8.05;;
74223;SDS011;62585;49.706;18.216;2023-09-12T08:04:55;9.45;;;7.60;;
74223;SDS011;62585;49.706;18.216;2023-09-12T08:07:21;12.77;;;8.98;;
74223;SDS011;62585;49.706;18.216;2023-09-12T08:09:54;12.88;;;8.27;;
74223;SDS011;62585;49.706;18.216;2023-09-12T08:12:22;11.27;;;7.85;;
74223;SDS011;62585;49.706;18.216;2023-09-12T08:14:50;10.60;;;7.50;;
74223;SDS011;62585;49.706;18.216;2023-09-12T08:17:16;11.48;;;7.40;;
74223;SDS011;62585;49.706;18.216;2023-09-12T08:19:42;10.27;;;7.45;;
74223;SDS011;62585;49.706;18.216;2023-09-12T08:22:08;11.30;;;6.43;;
74223;SDS011;62585;49.706;18.216;2023-09-12T08:24:35;10.55;;;6.43;;
74223;SDS011;62585;49.706;18.216;2023-09-12T08:27:02;10.00;;;6.60;;
74223;SDS011;62585;49.706;18.216;2023-09-12T08:29:29;8.13;;;6.55;;
74223;SDS011;62585;49.706;18.216;2023-09-12T08:34:21;9.48;;;7.00;;
74223;SDS011;62585;49.706;18.216;2023-09-12T08:36:47;10.25;;;6.80;;
74223;SDS011;62585;49.706;18.216;2023-09-12T08:39:16;9.07;;;6.13;;
74223;SDS011;62585;49.706;18.216;2023-09-12T08:41:46;11.55;;;6.93;;
74223;SDS011;62585;49.706;18.216;2023-09-12T08:44:16;9.10;;;7.15;;
74223;SDS011;62585;49.706;18.216;2023-09-12T08:46:56;8.73;;;7.43;;
74223;SDS011;62585;49.706;18.216;2023-09-12T08:49:22;10.00;;;6.85;;
74223;SDS011;62585;49.706;18.216;2023-09-12T08:54:14;8.75;;;7.38;;
74223;SDS011;62585;49.706;18.216;2023-09-12T08:56:40;9.50;;;7.00;;
74223;SDS011;62585;49.706;18.216;2023-09-12T08:59:10;7.07;;;5.50;;
74223;SDS011;62585;49.706;18.216;2023-09-12T09:01:38;15.18;;;5.95;;
74223;SDS011;62585;49.706;18.216;2023-09-12T09:04:05;9.00;;;5.85;;
74223;SDS011;62585;49.706;18.216;2023-09-12T09:06:32;9.32;;;6.40;;
74223;SDS011;62585;49.706;18.216;2023-09-12T09:09:04;9.68;;;5.90;;
74223;SDS011;62585;49.706;18.216;2023-09-12T09:11:31;10.02;;;5.88;;
74223;SDS011;62585;49.706;18.216;2023-09-12T09:13:56;7.75;;;6.10;;
74223;SDS011;62585;49.706;18.216;2023-09-12T09:16:23;9.30;;;6.53;;
74223;SDS011;62585;49.706;18.216;2023-09-12T09:18:56;10.18;;;6.30;;
74223;SDS011;62585;49.706;18.216;2023-09-12T09:21:27;9.65;;;6.03;;
74223;SDS011;62585;49.706;18.216;2023-09-12T09:23:58;8.77;;;6.22;;
74223;SDS011;62585;49.706;18.216;2023-09-12T09:26:25;9.88;;;6.05;;
74223;SDS011;62585;49.706;18.216;2023-09-12T09:29:13;10.15;;;5.78;;
74223;SDS011;62585;49.706;18.216;2023-09-12T09:31:42;7.18;;;5.95;;
74223;SDS011;62585;49.706;18.216;2023-09-12T09:34:18;10.07;;;6.20;;
74223;SDS011;62585;49.706;18.216;2023-09-12T09:36:50;9.75;;;6.15;;
74223;SDS011;62585;49.706;18.216;2023-09-12T09:39:20;8.10;;;5.97;;
74223;SDS011;62585;49.706;18.216;2023-09-12T09:42:41;9.32;;;5.90;;
74223;SDS011;62585;49.706;18.216;2023-09-12T09:45:06;9.77;;;6.45;;
74223;SDS011;62585;49.706;18.216;2023-09-12T09:47:33;8.27;;;6.45;;
74223;SDS011;62585;49.706;18.216;2023-09-12T09:49:59;9.15;;;6.35;;
74223;SDS011;62585;49.706;18.216;2023-09-12T09:52:26;11.82;;;6.45;;
74223;SDS011;62585;49.706;18.216;2023-09-12T09:54:53;8.32;;;6.30;;
74223;SDS011;62585;49.706;18.216;2023-09-12T09:57:19;10.70;;;6.50;;
74223;SDS011;62585;49.706;18.216;2023-09-12T09:59:48;9.77;;;6.45;;
74223;SDS011;62585;49.706;18.216;2023-09-12T10:02:18;9.50;;;6.45;;
74223;SDS011;62585;49.706;18.216;2023-09-12T10:04:49;9.15;;;5.97;;
74223;SDS011;62585;49.706;18.216;2023-09-12T10:07:19;10.32;;;6.63;;
74223;SDS011;62585;49.706;18.216;2023-09-12T10:09:46;11.27;;;6.53;;
74223;SDS011;62585;49.706;18.216;2023-09-12T10:12:12;8.05;;;5.90;;
74223;SDS011;62585;49.706;18.216;2023-09-12T10:14:39;8.35;;;6.38;;
74223;SDS011;62585;49.706;18.216;2023-09-12T10:17:06;10.05;;;6.82;;
74223;SDS011;62585;49.706;18.216;2023-09-12T10:19:32;11.20;;;6.63;;
74223;SDS011;62585;49.706;18.216;2023-09-12T10:22:18;6.68;;;5.68;;
74223;SDS011;62585;49.706;18.216;2023-09-12T10:24:47;8.27;;;6.00;;
74223;SDS011;62585;49.706;18.216;2023-09-12T10:27:15;8.00;;;6.10;;
74223;SDS011;62585;49.706;18.216;2023-09-12T10:29:44;9.95;;;6.65;;
74223;SDS011;62585;49.706;18.216;2023-09-12T10:32:14;8.73;;;6.38;;
74223;SDS011;62585;49.706;18.216;2023-09-12T10:34:41;11.38;;;6.60;;
74223;SDS011;62585;49.706;18.216;2023-09-12T10:37:11;10.55;;;6.95;;
74223;SDS011;62585;49.706;18.216;2023-09-12T10:39:40;9.55;;;6.50;;
74223;SDS011;62585;49.706;18.216;2023-09-12T10:42:09;13.32;;;6.47;;
74223;SDS011;62585;49.706;18.216;2023-09-12T10:44:37;9.43;;;6.13;;
74223;SDS011;62585;49.706;18.216;2023-09-12T10:47:04;9.02;;;5.68;;
74223;SDS011;62585;49.706;18.216;2023-09-12T10:49:30;10.32;;;6.40;;
74223;SDS011;62585;49.706;18.216;2023-09-12T10:51:56;8.68;;;5.70;;
74223;SDS011;62585;49.706;18.216;2023-09-12T10:54:26;8.82;;;5.50;;
74223;SDS011;62585;49.706;18.216;2023-09-12T10:57:08;10.93;;;5.88;;
74223;SDS011;62585;49.706;18.216;2023-09-12T11:02:32;8.30;;;5.82;;
74223;SDS011;62585;49.706;18.216;2023-09-12T11:05:00;9.30;;;6.50;;
74223;SDS011;62585;49.706;18.216;2023-09-12T11:07:33;8.73;;;5.90;;
74223;SDS011;62585;49.706;18.216;2023-09-12T11:12:46;8.32;;;6.28;;
74223;SDS011;62585;49.706;18.216;2023-09-12T11:15:14;9.55;;;5.90;;
74223;SDS011;62585;49.706;18.216;2023-09-12T11:17:47;8.45;;;5.97;;
74223;SDS011;62585;49.706;18.216;2023-09-12T11:20:14;8.27;;;6.47;;
74223;SDS011;62585;49.706;18.216;2023-09-12T11:22:46;7.03;;;6.10;;
74223;SDS011;62585;49.706;18.216;2023-09-12T11:28:01;10.65;;;6.50;;
74223;SDS011;62585;49.706;18.216;2023-09-12T11:30:29;9.75;;;6.47;;
74223;SDS011;62585;49.706;18.216;2023-09-12T11:33:02;8.57;;;6.13;;
74223;SDS011;62585;49.706;18.216;2023-09-12T11:35:30;9.63;;;6.60;;
74223;SDS011;62585;49.706;18.216;2023-09-12T11:38:02;11.10;;;6.05;;
74223;SDS011;62585;49.706;18.216;2023-09-12T11:43:01;8.05;;;5.88;;
74223;SDS011;62585;49.706;18.216;2023-09-12T11:45:27;8.23;;;5.75;;
74223;SDS011;62585;49.706;18.216;2023-09-12T11:47:56;10.15;;;6.10;;
74223;SDS011;62585;49.706;18.216;2023-09-12T11:50:28;8.82;;;6.13;;
74223;SDS011;62585;49.706;18.216;2023-09-12T11:53:03;9.77;;;6.10;;
74223;SDS011;62585;49.706;18.216;2023-09-12T11:55:31;9.20;;;6.05;;
74223;SDS011;62585;49.706;18.216;2023-09-12T11:58:00;9.00;;;5.97;;
74223;SDS011;62585;49.706;18.216;2023-09-12T12:00:26;10.80;;;6.10;;
74223;SDS011;62585;49.706;18.216;2023-09-12T12:02:54;11.60;;;6.38;;
74223;SDS011;62585;49.706;18.216;2023-09-12T12:05:21;8.80;;;6.45;;
74223;SDS011;62585;49.706;18.216;2023-09-12T12:07:48;10.00;;;6.72;;
74223;SDS011;62585;49.706;18.216;2023-09-12T12:10:16;9.40;;;6.03;;
74223;SDS011;62585;49.706;18.216;2023-09-12T12:12:45;9.15;;;6.13;;
74223;SDS011;62585;49.706;18.216;2023-09-12T12:15:14;6.88;;;5.53;;
74223;SDS011;62585;49.706;18.216;2023-09-12T12:17:41;6.70;;;6.00;;
74223;SDS011;62585;49.706;18.216;2023-09-12T12:20:11;9.85;;;6.60;;
74223;SDS011;62585;49.706;18.216;2023-09-12T12:22:38;7.18;;;5.97;;
74223;SDS011;62585;49.706;18.216;2023-09-12T12:25:05;6.97;;;5.63;;
74223;SDS011;62585;49.706;18.216;2023-09-12T12:27:35;8.18;;;6.47;;
74223;SDS011;62585;49.706;18.216;2023-09-12T12:30:08;7.00;;;5.55;;
74223;SDS011;62585;49.706;18.216;2023-09-12T12:32:36;10.15;;;5.65;;
74223;SDS011;62585;49.706;18.216;2023-09-12T12:35:09;7.32;;;6.07;;
74223;SDS011;62585;49.706;18.216;2023-09-12T12:37:36;7.47;;;5.90;;
74223;SDS011;62585;49.706;18.216;2023-09-12T12:40:02;10.25;;;6.03;;
74223;SDS011;62585;49.706;18.216;2023-09-12T12:42:35;10.25;;;6.95;;
74223;SDS011;62585;49.706;18.216;2023-09-12T12:45:13;16.00;;;11.23;;
74223;SDS011;62585;49.706;18.216;2023-09-12T12:47:41;9.85;;;7.85;;
74223;SDS011;62585;49.706;18.216;2023-09-12T12:50:08;12.73;;;7.20;;
74223;SDS011;62585;49.706;18.216;2023-09-12T12:52:38;16.40;;;12.18;;
74223;SDS011;62585;49.706;18.216;2023-09-12T12:55:09;9.52;;;6.90;;
74223;SDS011;62585;49.706;18.216;2023-09-12T12:57:40;8.65;;;6.28;;
74223;SDS011;62585;49.706;18.216;2023-09-12T13:00:11;14.23;;;10.02;;
74223;SDS011;62585;49.706;18.216;2023-09-12T13:02:39;9.88;;;6.80;;
74223;SDS011;62585;49.706;18.216;2023-09-12T13:05:27;7.85;;;5.80;;
74223;SDS011;62585;49.706;18.216;2023-09-12T13:07:53;8.43;;;6.15;;
74223;SDS011;62585;49.706;18.216;2023-09-12T13:12:46;9.00;;;6.25;;
74223;SDS011;62585;49.706;18.216;2023-09-12T13:15:13;16.48;;;11.90;;
74223;SDS011;62585;49.706;18.216;2023-09-12T13:17:40;21.95;;;15.75;;
74223;SDS011;62585;49.706;18.216;2023-09-12T13:20:06;7.88;;;6.10;;
74223;SDS011;62585;49.706;18.216;2023-09-12T13:22:34;8.63;;;6.05;;
74223;SDS011;62585;49.706;18.216;2023-09-12T13:25:00;7.78;;;6.03;;
74223;SDS011;62585;49.706;18.216;2023-09-12T13:27:26;11.95;;;6.25;;
74223;SDS011;62585;49.706;18.216;2023-09-12T13:29:52;6.35;;;5.68;;
74223;SDS011;62585;49.706;18.216;2023-09-12T13:32:18;7.47;;;6.18;;
74223;SDS011;62585;49.706;18.216;2023-09-12T13:34:44;8.35;;;5.38;;
74223;SDS011;62585;49.706;18.216;2023-09-12T13:37:10;8.32;;;6.20;;
74223;SDS011;62585;49.706;18.216;2023-09-12T13:39:36;8.25;;;6.22;;
74223;SDS011;62585;49.706;18.216;2023-09-12T13:42:02;6.75;;;5.95;;
74223;SDS011;62585;49.706;18.216;2023-09-12T13:44:29;7.82;;;6.18;;
74223;SDS011;62585;49.706;18.216;2023-09-12T13:46:55;9.27;;;6.47;;
74223;SDS011;62585;49.706;18.216;2023-09-12T13:49:21;10.73;;;6.13;;
74223;SDS011;62585;49.706;18.216;2023-09-12T13:51:47;9.50;;;6.10;;
74223;SDS011;62585;49.706;18.216;2023-09-12T13:54:13;7.25;;;6.28;;
74223;SDS011;62585;49.706;18.216;2023-09-12T13:56:42;9.57;;;5.72;;
74223;SDS011;62585;49.706;18.216;2023-09-12T13:59:09;10.90;;;6.32;;
74223;SDS011;62585;49.706;18.216;2023-09-12T14:01:36;10.80;;;6.93;;
74223;SDS011;62585;49.706;18.216;2023-09-12T14:04:05;10.30;;;6.30;;
74223;SDS011;62585;49.706;18.216;2023-09-12T14:06:34;10.07;;;6.55;;
74223;SDS011;62585;49.706;18.216;2023-09-12T14:09:03;8.20;;;6.15;;
74223;SDS011;62585;49.706;18.216;2023-09-12T14:14:05;10.18;;;6.20;;
74223;SDS011;62585;49.706;18.216;2023-09-12T14:16:31;10.40;;;6.70;;
74223;SDS011;62585;49.706;18.216;2023-09-12T14:18:57;9.02;;;6.35;;
74223;SDS011;62585;49.706;18.216;2023-09-12T14:21:23;8.85;;;6.32;;
74223;SDS011;62585;49.706;18.216;2023-09-12T14:23:48;10.23;;;6.28;;
74223;SDS011;62585;49.706;18.216;2023-09-12T14:26:14;11.35;;;6.50;;
74223;SDS011;62585;49.706;18.216;2023-09-12T14:28:40;8.45;;;6.28;;
74223;SDS011;62585;49.706;18.216;2023-09-12T14:31:06;9.20;;;6.05;;
74223;SDS011;62585;49.706;18.216;2023-09-12T14:33:38;11.50;;;6.63;;
74223;SDS011;62585;49.706;18.216;2023-09-12T14:36:05;10.10;;;6.43;;
74223;SDS011;62585;49.706;18.216;2023-09-12T14:38:33;9.07;;;6.72;;
74223;SDS011;62585;49.706;18.216;2023-09-12T14:40:59;8.23;;;6.30;;
74223;SDS011;62585;49.706;18.216;2023-09-12T14:43:24;8.13;;;6.35;;
74223;SDS011;62585;49.706;18.216;2023-09-12T14:45:51;10.63;;;6.10;;
74223;SDS011;62585;49.706;18.216;2023-09-12T14:48:17;12.10;;;7.35;;
74223;SDS011;62585;49.706;18.216;2023-09-12T14:50:43;9.65;;;6.43;;
74223;SDS011;62585;49.706;18.216;2023-09-12T14:53:09;9.25;;;6.57;;
74223;SDS011;62585;49.706;18.216;2023-09-12T14:55:37;10.90;;;6.82;;
74223;SDS011;62585;49.706;18.216;2023-09-12T14:58:03;9.88;;;6.28;;
74223;SDS011;62585;49.706;18.216;2023-09-12T15:00:29;10.10;;;6.13;;
74223;SDS011;62585;49.706;18.216;2023-09-12T15:05:21;7.82;;;6.65;;
74223;SDS011;62585;49.706;18.216;2023-09-12T15:07:46;9.82;;;5.93;;
74223;SDS011;62585;49.706;18.216;2023-09-12T15:10:12;9.25;;;6.38;;
74223;SDS011;62585;49.706;18.216;2023-09-12T15:12:38;10.27;;;6.18;;
74223;SDS011;62585;49.706;18.216;2023-09-12T15:15:04;7.68;;;6.10;;
74223;SDS011;62585;49.706;18.216;2023-09-12T15:17:30;10.82;;;6.15;;
74223;SDS011;62585;49.706;18.216;2023-09-12T15:19:56;9.38;;;6.53;;
74223;SDS011;62585;49.706;18.216;2023-09-12T15:22:21;7.70;;;6.15;;
74223;SDS011;62585;49.706;18.216;2023-09-12T15:24:47;8.40;;;6.15;;
74223;SDS011;62585;49.706;18.216;2023-09-12T15:27:13;9.23;;;6.38;;
74223;SDS011;62585;49.706;18.216;2023-09-12T15:29:38;9.13;;;6.10;;
74223;SDS011;62585;49.706;18.216;2023-09-12T15:32:04;9.35;;;6.57;;
74223;SDS011;62585;49.706;18.216;2023-09-12T15:34:34;9.57;;;6.85;;
74223;SDS011;62585;49.706;18.216;2023-09-12T15:37:06;10.93;;;7.88;;
74223;SDS011;62585;49.706;18.216;2023-09-12T15:39:34;11.57;;;7.22;;
74223;SDS011;62585;49.706;18.216;2023-09-12T15:41:59;7.95;;;5.80;;
74223;SDS011;62585;49.706;18.216;2023-09-12T15:44:25;7.70;;;6.32;;
74223;SDS011;62585;49.706;18.216;2023-09-12T15:46:51;9.15;;;6.60;;
74223;SDS011;62585;49.706;18.216;2023-09-12T15:49:19;9.02;;;6.88;;
74223;SDS011;62585;49.706;18.216;2023-09-12T15:51:44;9.95;;;7.03;;
74223;SDS011;62585;49.706;18.216;2023-09-12T15:54:10;9.93;;;6.70;;
74223;SDS011;62585;49.706;18.216;2023-09-12T15:56:36;8.98;;;6.70;;
74223;SDS011;62585;49.706;18.216;2023-09-12T15:59:02;12.07;;;7.18;;
74223;SDS011;62585;49.706;18.216;2023-09-12T16:01:28;9.68;;;7.40;;
74223;SDS011;62585;49.706;18.216;2023-09-12T16:03:54;10.95;;;6.82;;
74223;SDS011;62585;49.706;18.216;2023-09-12T16:06:20;10.00;;;6.68;;
74223;SDS011;62585;49.706;18.216;2023-09-12T16:08:47;9.88;;;7.40;;
74223;SDS011;62585;49.706;18.216;2023-09-12T16:11:13;9.07;;;7.20;;
74223;SDS011;62585;49.706;18.216;2023-09-12T16:13:39;13.70;;;7.50;;
74223;SDS011;62585;49.706;18.216;2023-09-12T16:16:04;10.13;;;7.00;;
74223;SDS011;62585;49.706;18.216;2023-09-12T16:18:30;9.07;;;6.93;;
74223;SDS011;62585;49.706;18.216;2023-09-12T16:20:57;11.77;;;7.20;;
74223;SDS011;62585;49.706;18.216;2023-09-12T16:23:25;11.32;;;7.60;;
74223;SDS011;62585;49.706;18.216;2023-09-12T16:25:57;10.15;;;7.53;;
74223;SDS011;62585;49.706;18.216;2023-09-12T16:28:24;11.57;;;7.18;;
74223;SDS011;62585;49.706;18.216;2023-09-12T16:30:50;9.45;;;7.20;;
74223;SDS011;62585;49.706;18.216;2023-09-12T16:33:16;11.38;;;7.22;;
74223;SDS011;62585;49.706;18.216;2023-09-12T16:35:42;12.75;;;8.40;;
74223;SDS011;62585;49.706;18.216;2023-09-12T16:38:08;12.07;;;8.13;;
74223;SDS011;62585;49.706;18.216;2023-09-12T16:40:35;10.77;;;8.25;;
74223;SDS011;62585;49.706;18.216;2023-09-12T16:43:02;10.80;;;8.32;;
74223;SDS011;62585;49.706;18.216;2023-09-12T16:45:28;10.45;;;7.65;;
74223;SDS011;62585;49.706;18.216;2023-09-12T16:47:54;12.77;;;9.02;;
74223;SDS011;62585;49.706;18.216;2023-09-12T16:50:20;10.98;;;8.30;;
74223;SDS011;62585;49.706;18.216;2023-09-12T16:52:46;12.10;;;7.75;;
74223;SDS011;62585;49.706;18.216;2023-09-12T16:55:12;10.93;;;8.00;;
74223;SDS011;62585;49.706;18.216;2023-09-12T16:57:40;10.32;;;7.75;;
74223;SDS011;62585;49.706;18.216;2023-09-12T17:00:05;13.00;;;8.90;;
74223;SDS011;62585;49.706;18.216;2023-09-12T17:02:34;11.55;;;7.60;;
74223;SDS011;62585;49.706;18.216;2023-09-12T17:05:03;12.98;;;8.23;;
74223;SDS011;62585;49.706;18.216;2023-09-12T17:07:30;11.10;;;8.23;;
74223;SDS011;62585;49.706;18.216;2023-09-12T17:09:56;10.00;;;8.15;;
74223;SDS011;62585;49.706;18.216;2023-09-12T17:12:23;11.18;;;8.00;;
74223;SDS011;62585;49.706;18.216;2023-09-12T17:14:49;9.98;;;8.55;;
74223;SDS011;62585;49.706;18.216;2023-09-12T17:17:15;10.23;;;7.97;;
74223;SDS011;62585;49.706;18.216;2023-09-12T17:19:40;10.90;;;7.95;;
74223;SDS011;62585;49.706;18.216;2023-09-12T17:22:06;12.98;;;8.27;;
74223;SDS011;62585;49.706;18.216;2023-09-12T17:24:32;11.60;;;8.23;;
74223;SDS011;62585;49.706;18.216;2023-09-12T17:26:58;16.15;;;8.27;;
74223;SDS011;62585;49.706;18.216;2023-09-12T17:29:23;11.68;;;8.25;;
74223;SDS011;62585;49.706;18.216;2023-09-12T17:31:50;12.32;;;8.02;;
74223;SDS011;62585;49.706;18.216;2023-09-12T17:34:16;14.60;;;8.00;;
74223;SDS011;62585;49.706;18.216;2023-09-12T17:36:43;11.25;;;8.98;;
74223;SDS011;62585;49.706;18.216;2023-09-12T17:39:12;13.05;;;8.13;;
74223;SDS011;62585;49.706;18.216;2023-09-12T17:41:39;12.27;;;8.75;;
74223;SDS011;62585;49.706;18.216;2023-09-12T17:46:31;11.30;;;8.70;;
74223;SDS011;62585;49.706;18.216;2023-09-12T17:48:57;12.95;;;8.38;;
74223;SDS011;62585;49.706;18.216;2023-09-12T17:51:23;12.38;;;8.23;;
74223;SDS011;62585;49.706;18.216;2023-09-12T17:53:48;15.80;;;8.30;;
74223;SDS011;62585;49.706;18.216;2023-09-12T17:56:14;11.98;;;7.85;;
74223;SDS011;62585;49.706;18.216;2023-09-12T17:58:41;15.43;;;8.05;;